• Join FlightAware (Why Join?)
  • Login
  • US Flag 
08:13AM EST


 

Airport Tracker/Info


-or-


 

Live Flight TrackerFlight Track Log ✈ SWA149 ✈ 30-Apr-2013 ✈ KEWR - KMDW

Flight Track Log - Related Links

Times and Time Zones

All times are in EDT time to prevent confusion due to time zone crossing. See the SWA149 flight status page for this flight to view local times or setup timezone preferences in your user account.

Time Position Orientation Groundspeed Altitude Reporting Facility
EDT Latitude Longitude Course Direction KTS MPH feet Rate Location/Type
12:17PM 40.7167 -74.1500 27° Northeast 176 203 1,600  Level New York TRACON
12:18PM 40.7667 -74.1167 27° Northeast 238 274 4,000 2,520 Climbing New York TRACON
12:19PM 40.7667 -74.2167 270° West 265 305 6,500 3,060 Climbing New York TRACON
12:20PM 40.7833 -74.3167 282° West 297 342 10,100 2,940 Climbing New York TRACON
12:21PM 40.8000 -74.4333 281° West 346 398 12,400 2,400 Climbing New York TRACON
12:23PM 40.8517 -74.7214 283° West 383 441 18,000 2,220 Climbing New York Center
12:24PM 40.8697 -74.8653 279° West 383 441 19,600 2,040 Climbing New York Center
12:25PM 40.8522 -75.0122 261° West 396 456 22,100 2,160 Climbing New York Center
12:26PM 40.8300 -75.1617 259° West 408 470 24,000 1,560 Climbing New York Center
12:27PM 40.8103 -75.3003 259° West 416 479 25,300 1,620 Climbing New York Center
12:28PM 40.7856 -75.4522 258° West 428 493 27,300 2,160 Climbing New York Center
12:29PM 40.7628 -75.6039 259° West 433 498 29,600 1,860 Climbing New York Center
12:30PM 40.7397 -75.7531 259° West 426 490 31,100 1,560 Climbing New York Center
12:31PM 40.7183 -75.9158 260° West 426 490 32,800 1,560 Climbing New York Center
12:32PM 40.6958 -76.0456 257° West 421 484 34,300 1,140 Climbing New York Center
12:33PM 40.6728 -76.1889 258° West 416 479 35,200 780 Climbing New York Center
12:34PM 40.6764 -76.3342 272° West 405 466 35,900 360 Climbing New York Center
12:35PM 40.6986 -76.4811 281° West 400 460 36,000  Climbing New York Center
12:36PM 40.7206 -76.6308 281° West 413 475 36,000  Level New York Center
12:37PM 40.7444 -76.7781 282° West 418 481 36,000  Level New York Center
12:38PM 40.7658 -76.9278 281° West 412 474 36,000  Level New York Center
12:39PM 40.7872 -77.0750 281° West 412 474 36,000  Level New York Center
12:40PM 40.8067 -77.2194 280° West 412 474 36,000  Level New York Center
12:41PM 40.8331 -77.3811 282° West 412 474 36,000  Level New York Center
12:42PM 40.8519 -77.5256 280° West 406 467 36,000  Level New York Center
12:44PM 40.8878 -77.7925 280° West 414 476 36,000  Level Cleveland Center
12:45PM 40.9081 -77.9372 281° West 408 470 36,000  Level Cleveland Center
12:46PM 40.9258 -78.0850 279° West 408 470 36,000  Level Cleveland Center
12:47PM 40.9436 -78.2300 279° West 408 470 36,000  Level Cleveland Center
12:48PM 40.9653 -78.3750 281° West 408 470 36,000  Level Cleveland Center
12:49PM 40.9825 -78.5231 279° West 408 470 36,000  Level Cleveland Center
12:50PM 40.9997 -78.6711 279° West 408 470 36,000  Level Cleveland Center
12:51PM 41.0167 -78.8164 279° West 408 470 36,000  Level Cleveland Center
12:52PM 41.0356 -78.9617 280° West 408 470 36,000  Level Cleveland Center
12:53PM 41.0500 -79.1072 278° West 408 470 36,000  Level Cleveland Center
12:54PM 41.0686 -79.2583 279° West 408 470 36,000  Level Cleveland Center
12:55PM 41.0825 -79.4042 277° West 408 470 36,000  Level Cleveland Center
12:56PM 41.1006 -79.5525 279° West 408 470 36,000  Level Cleveland Center
12:57PM 41.1186 -79.7011 279° West 408 470 36,000  Level Cleveland Center
12:58PM 41.1322 -79.8525 277° West 408 470 36,000  Level Cleveland Center
12:59PM 41.1497 -80.0178 278° West 413 475 36,000  Level Cleveland Center
01:00PM 41.1669 -80.1500 280° West 413 475 36,000  Level Cleveland Center
01:01PM 41.1822 -80.3017 278° West 413 475 36,000  Level Cleveland Center
01:02PM 41.1969 -80.4700 277° West 418 481 36,000  Level Cleveland Center
01:03PM 41.2117 -80.6053 278° West 418 481 36,000  Level Cleveland Center
01:04PM 41.2261 -80.7569 277° West 429 494 36,000  Level Cleveland Center
01:05PM 41.2403 -80.9144 277° West 429 494 36,000  Level Cleveland Center
01:06PM 41.2564 -81.0664 278° West 424 488 36,000  Level Cleveland Center
01:07PM 41.2703 -81.2242 277° West 424 488 36,000  Level Cleveland Center
01:08PM 41.2858 -81.3789 278° West 429 494 36,000  Level Cleveland Center
01:09PM 41.3014 -81.5283 278° West 424 488 36,000  Level Cleveland Center
01:10PM 41.3169 -81.6806 278° West 424 488 36,000  Level Cleveland Center
01:11PM 41.3278 -81.8331 275° West 424 488 36,000  Level Cleveland Center
01:12PM 41.3467 -82.0047 278° West 424 488 36,000  Level Cleveland Center
01:13PM 41.3553 -82.1433 275° West 430 495 36,000  Level Cleveland Center
01:14PM 41.3656 -82.3014 275° West 424 488 36,000  Level Cleveland Center
01:15PM 41.3736 -82.4536 274° West 424 488 36,000  Level Cleveland Center
01:16PM 41.3814 -82.6089 274° West 424 488 36,000  Level Cleveland Center
01:17PM 41.3906 -82.7781 274° West 424 488 36,000 -780 Level Cleveland Center
01:18PM 41.4003 -82.9250 275° West 418 481 34,500 -1,020 Descending Cleveland Center
01:19PM 41.4094 -83.0806 275° West 418 481 34,000 -300 Descending Cleveland Center
01:20PM 41.4144 -83.2303 273° West 418 481 34,000  Level Cleveland Center
01:21PM 41.4211 -83.3911 273° West 425 489 34,000  Level Cleveland Center
01:22PM 41.4317 -83.5439 275° West 425 489 34,000  Level Cleveland Center
01:23PM 41.4358 -83.6992 272° West 425 489 34,000  Level Cleveland Center
01:24PM 41.4464 -83.8522 275° West 425 489 34,000 -60 Level Cleveland Center
01:25PM 41.4522 -84.0075 273° West 425 489 33,900 -540 Descending Cleveland Center
01:26PM 41.4578 -84.1631 273° West 425 489 33,000 -1,020 Descending Cleveland Center
01:28PM 41.4747 -84.4561 275° West 424 488 31,000 -1,020 Descending Chicago Center
01:29PM 41.4803 -84.6169 273° West 431 496 30,000 -540 Descending Chicago Center
01:30PM 41.4861 -84.7819 273° West 442 509 30,000  Level Chicago Center
01:31PM 41.4922 -84.9511 273° West 452 520 30,000  Level Chicago Center
01:32PM 41.4983 -85.1450 272° West 442 509 30,000 -1,560 Level Chicago Center
01:33PM 41.5031 -85.3064 272° West 433 498 26,800 -2,940 Descending Chicago Center
01:34PM 41.5072 -85.4711 272° West 431 496 24,000 -1,500 Descending Chicago Center
01:35PM 41.5131 -85.6222 273° West 401 461 23,800 -1,260 Descending Chicago Center
01:36PM 41.5181 -85.7722 273° West 401 461 21,500 -1,920 Descending Chicago Center
01:37PM 41.5217 -85.9181 272° West 394 453 19,900 -2,040 Descending Chicago Center
01:38PM 41.5242 -86.0556 271° West 374 430 17,400 -2,460 Descending Chicago Center
01:39PM 41.5236 -86.1881 270° West 360 414 14,800 -2,640 Descending Chicago Center
01:40PM 41.5228 -86.3394 270° West 341 392 11,900 -2,040 Descending Chicago Center
01:41PM 41.5219 -86.4617 270° West 333 383 10,600 -900 Descending Chicago Center
01:42PM 41.5211 -86.5847 270° West 332 382 10,100 -300 Descending Chicago Center
01:43PM 41.5200 -86.7161 269° West 329 379 10,100 -60 Level Chicago Center
01:44PM 41.5192 -86.8344 270° West 322 371 10,000 -540 Descending Chicago Center
01:45PM 41.5181 -86.9336 269° West 272 313 9,100 -1,260 Descending Chicago Center
01:46PM 41.5164 -87.0311 269° West 264 304 7,500 -1,620 Descending Chicago Center
01:48PM 41.5167 -87.1478 270° West 265 305 5,800 -1,380 Descending Chicago Center
01:48PM 41.5500 -87.2333 298° West 266 306 4,800 -1,020 Descending Chicago TRACON
01:49PM 41.6000 -87.3000 315° West 279 321 3,900 -420 Descending Chicago TRACON
01:50PM 41.6500 -87.3833 309° West 241 277 4,000  Climbing Chicago TRACON
01:52PM 41.6900 -87.4411 313° West 238 274 3,900 -540 Descending Chicago Center
01:53PM 41.7372 -87.5183 309° West 227 261 2,800 -720 Descending Chicago Center
01:54PM 41.7775 -87.5822 310° West 227 261 2,500 -240 Descending Chicago Center
01:55PM 41.8114 -87.6389 309° West 216 249 2,400 -360 Descending Chicago Center
01:55PM 41.8333 -87.6667 317° Northwest 196 226 2,000 -780 Descending Chicago TRACON
01:56PM 41.8167 -87.7167 246° West 126 145 1,300 -720 Descending Chicago TRACON